createdAt,value
2019-05-18T00:00:40.799Z,4.93
2019-05-18T00:03:12.183Z,4.23
2019-05-18T00:05:43.517Z,4.80
2019-05-18T00:08:30.086Z,5.10
2019-05-18T00:11:01.764Z,4.57
2019-05-18T00:13:33.109Z,4.23
2019-05-18T00:16:05.946Z,5.13
2019-05-18T00:18:39.432Z,4.20
2019-05-18T00:21:10.652Z,4.17
2019-05-18T00:23:42.462Z,5.10
2019-05-18T00:26:13.651Z,4.20
2019-05-18T00:28:45.048Z,4.03
2019-05-18T00:31:16.278Z,4.73
2019-05-18T00:33:47.712Z,4.80
2019-05-18T00:36:19.299Z,5.27
2019-05-18T00:38:50.564Z,4.80
2019-05-18T00:41:22.148Z,4.73
2019-05-18T00:43:54.133Z,4.80
2019-05-18T00:46:25.362Z,4.97
2019-05-18T00:48:56.609Z,4.70
2019-05-18T00:51:27.893Z,4.80
2019-05-18T00:53:59.395Z,5.17
2019-05-18T00:56:30.630Z,3.77
2019-05-18T00:59:01.842Z,4.30
2019-05-18T01:01:33.146Z,4.80
2019-05-18T01:04:04.410Z,4.93
2019-05-18T01:06:35.872Z,5.07
2019-05-18T01:09:07.545Z,4.97
2019-05-18T01:11:38.866Z,5.20
2019-05-18T01:14:10.216Z,3.77
2019-05-18T01:16:41.583Z,4.60
2019-05-18T01:19:12.874Z,4.60
2019-05-18T01:21:44.110Z,5.10
2019-05-18T01:24:15.574Z,5.13
2019-05-18T01:26:46.920Z,4.97
2019-05-18T01:29:18.277Z,4.73
2019-05-18T01:31:49.610Z,5.10
2019-05-18T01:34:21.087Z,4.70
2019-05-18T01:36:52.392Z,5.23
2019-05-18T01:39:23.603Z,4.47
2019-05-18T01:41:55.174Z,4.80
2019-05-18T01:44:26.438Z,5.10
2019-05-18T01:46:57.647Z,5.23
2019-05-18T01:49:28.855Z,5.27
2019-05-18T01:52:00.054Z,4.67
2019-05-18T01:54:31.235Z,3.80
2019-05-18T01:57:02.434Z,5.00
2019-05-18T01:59:35.355Z,4.37
2019-05-18T02:02:07.834Z,4.87
2019-05-18T02:04:39.182Z,4.90
2019-05-18T02:07:10.583Z,4.00
2019-05-18T02:09:43.363Z,4.90
2019-05-18T02:12:14.588Z,4.73
2019-05-18T02:14:46.047Z,4.80
2019-05-18T02:17:17.614Z,4.40
2019-05-18T02:19:49.017Z,5.47
2019-05-18T02:22:20.426Z,4.70
2019-05-18T02:24:51.900Z,4.23
2019-05-18T02:27:23.160Z,4.70
2019-05-18T02:29:54.726Z,4.77
2019-05-18T02:35:50.743Z,5.13
2019-05-18T02:38:22.046Z,4.17
2019-05-18T02:40:53.225Z,4.73
2019-05-18T02:43:24.600Z,4.83
2019-05-18T02:45:56.095Z,4.90
2019-05-18T02:48:27.373Z,4.07
2019-05-18T02:50:58.946Z,5.60
2019-05-18T02:53:30.501Z,5.47
2019-05-18T02:56:01.809Z,5.50
2019-05-18T02:58:33.103Z,5.17
2019-05-18T03:01:08.056Z,4.63
2019-05-18T03:03:42.362Z,5.90
2019-05-18T03:06:13.926Z,5.77
2019-05-18T03:08:45.140Z,4.73
2019-05-18T03:11:16.343Z,4.60
2019-05-18T03:13:47.693Z,4.83
2019-05-18T03:16:18.920Z,4.93
2019-05-18T03:19:06.918Z,4.07
2019-05-18T03:21:23.608Z,3.60
2019-05-18T03:23:55.207Z,4.63
2019-05-18T03:29:52.436Z,4.37
2019-05-18T03:32:23.656Z,4.20
2019-05-18T03:34:55.152Z,5.53
2019-05-18T03:37:26.501Z,4.57
2019-05-18T03:39:57.949Z,5.40
2019-05-18T03:42:29.129Z,4.47
2019-05-18T03:45:00.689Z,3.97
2019-05-18T03:47:32.111Z,4.43
2019-05-18T03:50:03.327Z,4.37
2019-05-18T03:52:34.534Z,4.10
2019-05-18T03:55:07.070Z,4.40
2019-05-18T03:57:38.464Z,3.70
2019-05-18T04:00:10.485Z,4.23
2019-05-18T04:02:41.676Z,4.37
2019-05-18T04:05:12.884Z,4.70
2019-05-18T04:07:47.166Z,3.70
2019-05-18T04:10:25.106Z,4.40
2019-05-18T04:12:56.434Z,4.63
2019-05-18T04:15:28.722Z,4.67
2019-05-18T04:18:01.253Z,4.23
2019-05-18T04:20:32.494Z,5.33
2019-05-18T04:23:06.880Z,3.73
2019-05-18T04:25:38.519Z,3.87
2019-05-18T04:28:10.366Z,4.43
2019-05-18T04:30:41.566Z,4.20
2019-05-18T04:33:12.769Z,3.90
2019-05-18T04:35:44.161Z,3.10
2019-05-18T04:38:15.352Z,3.80
2019-05-18T04:40:46.859Z,4.00
2019-05-18T04:43:18.116Z,3.53
2019-05-18T04:45:49.392Z,3.27
2019-05-18T04:48:20.585Z,3.83
2019-05-18T04:50:51.840Z,3.57
2019-05-18T04:53:23.041Z,3.37
2019-05-18T04:55:55.599Z,4.27
2019-05-18T04:58:27.098Z,3.60
2019-05-18T05:00:58.282Z,3.77
2019-05-18T05:03:29.491Z,5.30
2019-05-18T05:06:01.090Z,3.87
2019-05-18T05:08:32.325Z,3.70
2019-05-18T05:11:05.412Z,4.60
2019-05-18T05:13:38.503Z,4.07
2019-05-18T05:16:10.076Z,4.40
2019-05-18T05:18:41.354Z,4.67
2019-05-18T05:21:12.858Z,4.30
2019-05-18T05:23:44.143Z,4.33
2019-05-18T05:26:15.538Z,3.80
2019-05-18T05:28:46.851Z,5.23
2019-05-18T05:31:18.079Z,5.53
2019-05-18T05:33:49.263Z,4.47
2019-05-18T05:36:20.641Z,4.70
2019-05-18T05:38:52.080Z,4.53
2019-05-18T05:41:24.376Z,3.90
2019-05-18T05:43:55.737Z,4.73
2019-05-18T05:46:26.936Z,4.53
2019-05-18T05:48:58.265Z,5.00
2019-05-18T05:51:29.658Z,5.00
2019-05-18T05:54:01.026Z,7.50
2019-05-18T05:56:32.361Z,6.67
2019-05-18T05:59:03.850Z,7.07
2019-05-18T06:01:36.077Z,6.00
2019-05-18T06:04:07.610Z,5.97
2019-05-18T06:06:38.819Z,5.87
2019-05-18T06:09:10.428Z,4.57
2019-05-18T06:11:42.014Z,4.77
2019-05-18T06:14:13.592Z,5.27
2019-05-18T06:16:44.958Z,5.07
2019-05-18T06:19:16.164Z,5.47
2019-05-18T06:21:47.380Z,4.40
2019-05-18T06:24:18.951Z,4.90
2019-05-18T06:26:50.213Z,4.87
2019-05-18T06:29:21.768Z,7.80
2019-05-18T06:31:53.778Z,8.40
2019-05-18T06:34:25.759Z,5.43
2019-05-18T06:36:58.585Z,5.20
2019-05-18T06:39:29.826Z,4.70
2019-05-18T06:42:01.067Z,5.10
2019-05-18T06:44:32.298Z,5.60
2019-05-18T06:47:03.529Z,5.30
2019-05-18T06:49:34.885Z,5.70
2019-05-18T06:52:06.319Z,5.47
2019-05-18T06:54:37.553Z,4.90
2019-05-18T06:57:09.879Z,4.33
2019-05-18T06:59:41.961Z,5.30
2019-05-18T07:02:13.203Z,5.70
2019-05-18T07:04:44.734Z,5.10
2019-05-18T07:07:16.845Z,5.70
2019-05-18T07:09:49.773Z,4.70
2019-05-18T07:12:21.008Z,4.53
2019-05-18T07:14:52.401Z,4.30
2019-05-18T07:17:23.693Z,3.97
2019-05-18T07:19:54.861Z,3.93
2019-05-18T07:22:26.395Z,4.00
2019-05-18T07:24:57.607Z,4.10
2019-05-18T07:27:29.059Z,3.53
2019-05-18T07:30:19.752Z,3.87
2019-05-18T07:32:54.610Z,2.90
2019-05-18T07:35:25.881Z,3.20
2019-05-18T07:37:57.442Z,4.60
2019-05-18T07:40:28.846Z,3.70
2019-05-18T07:43:00.105Z,3.20
2019-05-18T07:45:31.738Z,3.80
2019-05-18T07:48:02.998Z,3.70
2019-05-18T07:50:36.403Z,3.90
2019-05-18T07:53:07.770Z,3.47
2019-05-18T07:55:39.097Z,3.00
2019-05-18T07:58:10.391Z,3.30
2019-05-18T08:00:41.667Z,3.33
2019-05-18T08:03:13.069Z,2.83
2019-05-18T08:05:44.282Z,3.73
2019-05-18T08:08:16.019Z,3.60
2019-05-18T08:10:47.524Z,3.30
2019-05-18T08:13:18.761Z,3.27
2019-05-18T08:15:49.967Z,3.87
2019-05-18T08:18:21.176Z,3.80
2019-05-18T08:20:52.694Z,4.30
2019-05-18T08:23:24.186Z,3.83
2019-05-18T08:25:55.661Z,3.80
2019-05-18T08:28:26.840Z,3.27
2019-05-18T08:30:58.301Z,2.87
2019-05-18T08:33:29.982Z,3.47
2019-05-18T08:36:01.269Z,3.33
2019-05-18T08:38:32.536Z,3.23
2019-05-18T08:41:05.530Z,2.70
2019-05-18T08:43:39.786Z,3.30
2019-05-18T08:46:11.344Z,3.40
2019-05-18T08:48:42.923Z,3.93
2019-05-18T08:51:14.186Z,3.70
2019-05-18T08:53:45.830Z,3.50
2019-05-18T08:56:17.160Z,3.77
2019-05-18T08:58:48.559Z,3.50
2019-05-18T09:01:20.118Z,3.60
2019-05-18T09:03:51.370Z,3.20
2019-05-18T09:06:22.776Z,3.23
2019-05-18T09:08:54.248Z,3.17
2019-05-18T09:11:25.453Z,3.10
2019-05-18T09:13:56.665Z,2.67
2019-05-18T09:16:28.153Z,3.80
2019-05-18T09:18:59.487Z,2.87
2019-05-18T09:21:30.750Z,3.77
2019-05-18T09:24:02.387Z,2.73
2019-05-18T09:26:33.721Z,3.23
2019-05-18T09:29:05.033Z,3.17
2019-05-18T09:31:36.454Z,3.80
2019-05-18T09:34:07.688Z,3.50
2019-05-18T09:36:39.214Z,3.50
2019-05-18T09:39:10.843Z,4.03
2019-05-18T09:41:42.069Z,4.90
2019-05-18T09:44:13.414Z,4.70
2019-05-18T09:46:44.800Z,3.80
2019-05-18T09:49:16.051Z,3.30
2019-05-18T09:51:47.243Z,4.90
2019-05-18T09:54:18.854Z,5.27
2019-05-18T09:56:50.121Z,5.40
2019-05-18T09:59:21.494Z,5.50
2019-05-18T10:01:53.519Z,6.33
2019-05-18T10:04:24.809Z,5.77
2019-05-18T10:06:56.097Z,6.07
2019-05-18T10:09:38.543Z,6.17
2019-05-18T10:12:01.698Z,5.47
2019-05-18T10:14:34.524Z,5.10
2019-05-18T10:17:05.802Z,6.10
2019-05-18T10:19:37.093Z,7.30
2019-05-18T10:22:08.283Z,6.10
2019-05-18T10:24:39.789Z,5.80
2019-05-18T10:27:11.042Z,6.00
2019-05-18T10:29:42.426Z,6.87
2019-05-18T10:32:13.665Z,7.13
2019-05-18T10:34:44.970Z,7.40
2019-05-18T10:37:16.322Z,7.37
2019-05-18T10:39:47.802Z,6.50
2019-05-18T10:42:19.851Z,8.07
2019-05-18T10:44:51.089Z,8.00
2019-05-18T10:47:41.363Z,8.60
2019-05-18T10:50:30.897Z,7.93
2019-05-18T10:53:02.297Z,9.10
2019-05-18T10:55:52.370Z,9.47
2019-05-18T10:58:41.949Z,10.83
2019-05-18T11:01:15.423Z,8.50
2019-05-18T11:03:51.625Z,9.83
2019-05-18T11:06:22.873Z,9.60
2019-05-18T11:08:54.118Z,10.37
2019-05-18T11:11:27.284Z,9.27
2019-05-18T11:14:01.117Z,9.33
2019-05-18T11:16:36.613Z,10.13
2019-05-18T11:19:09.296Z,10.33
2019-05-18T11:21:46.142Z,8.53
2019-05-18T11:24:22.262Z,8.40
2019-05-18T11:26:53.624Z,9.33
2019-05-18T11:29:25.493Z,9.80
2019-05-18T11:31:56.740Z,9.37
2019-05-18T11:34:28.001Z,8.63
2019-05-18T11:37:05.900Z,8.93
2019-05-18T11:39:38.491Z,7.40
2019-05-18T11:42:09.859Z,8.40
2019-05-18T11:44:41.170Z,7.27
2019-05-18T11:47:12.502Z,7.40
2019-05-18T11:49:43.719Z,7.63
2019-05-18T11:52:14.992Z,7.40
2019-05-18T11:54:46.316Z,7.40
2019-05-18T11:57:17.587Z,8.33
2019-05-18T11:59:48.843Z,8.93
2019-05-18T12:02:21.238Z,8.17
2019-05-18T12:04:52.824Z,7.03
2019-05-18T12:07:24.083Z,6.50
2019-05-18T12:09:55.258Z,8.73
2019-05-18T12:12:27.861Z,9.10
2019-05-18T12:15:00.939Z,8.30
2019-05-18T12:17:32.863Z,9.10
2019-05-18T12:20:04.153Z,8.63
2019-05-18T12:22:35.351Z,6.00
2019-05-18T12:25:06.842Z,5.03
2019-05-18T12:27:38.117Z,4.33
2019-05-18T12:30:10.744Z,4.83
2019-05-18T12:32:42.049Z,3.40
2019-05-18T12:35:13.891Z,3.93
2019-05-18T12:37:45.607Z,3.50
2019-05-18T12:40:20.654Z,3.37
2019-05-18T12:42:52.061Z,3.20
2019-05-18T12:45:23.388Z,3.60
2019-05-18T12:47:54.640Z,3.70
2019-05-18T12:50:26.456Z,4.10
2019-05-18T12:52:57.716Z,4.50
2019-05-18T12:55:29.001Z,3.13
2019-05-18T12:58:00.313Z,4.90
2019-05-18T13:00:31.645Z,4.43
2019-05-18T13:03:02.892Z,4.30
2019-05-18T13:05:34.456Z,4.43
2019-05-18T13:08:05.808Z,4.30
2019-05-18T13:10:37.296Z,4.00
2019-05-18T13:13:08.572Z,5.60
2019-05-18T13:15:39.811Z,6.13
2019-05-18T13:18:11.169Z,5.40
2019-05-18T13:20:42.559Z,5.93
2019-05-18T13:23:13.779Z,5.30
2019-05-18T13:25:45.109Z,5.87
2019-05-18T13:28:16.802Z,5.90
2019-05-18T13:30:48.336Z,5.23
2019-05-18T13:33:19.609Z,5.57
2019-05-18T13:35:51.212Z,5.37
2019-05-18T13:38:22.427Z,5.63
2019-05-18T13:40:53.821Z,5.90
2019-05-18T13:43:25.023Z,6.40
2019-05-18T13:45:57.289Z,6.77
2019-05-18T13:48:28.649Z,5.93
2019-05-18T13:51:00.054Z,5.47
2019-05-18T13:53:31.266Z,5.83
2019-05-18T13:56:02.731Z,5.50
2019-05-18T13:58:34.660Z,7.87
2019-05-18T14:01:07.491Z,6.80
2019-05-18T14:03:41.675Z,7.70
2019-05-18T14:06:13.034Z,5.60
2019-05-18T14:08:44.587Z,7.40
2019-05-18T14:11:16.019Z,6.33
2019-05-18T14:13:47.875Z,5.80
2019-05-18T14:16:20.473Z,6.40
2019-05-18T14:18:52.148Z,7.10
2019-05-18T14:21:23.425Z,6.93
2019-05-18T14:23:54.779Z,7.83
2019-05-18T14:26:26.146Z,7.50
2019-05-18T14:28:57.463Z,7.73
2019-05-18T14:31:28.860Z,8.73
2019-05-18T14:34:00.773Z,8.23
2019-05-18T14:36:32.349Z,8.30
2019-05-18T14:39:04.199Z,8.77
2019-05-18T14:41:35.769Z,9.60
2019-05-18T14:44:07.026Z,8.57
2019-05-18T14:46:38.239Z,8.20
2019-05-18T14:49:09.671Z,9.80
2019-05-18T14:51:41.145Z,7.97
2019-05-18T14:54:12.628Z,8.87
2019-05-18T14:56:43.838Z,7.90
2019-05-18T14:59:15.333Z,8.60
2019-05-18T15:01:46.580Z,8.47
2019-05-18T15:04:17.771Z,8.73
2019-05-18T15:06:49.222Z,7.70
2019-05-18T15:09:20.640Z,8.93
2019-05-18T15:11:51.850Z,8.67
2019-05-18T15:14:23.319Z,9.30
2019-05-18T15:16:54.670Z,8.80
2019-05-18T15:19:28.633Z,9.13
2019-05-18T15:22:01.576Z,8.97
2019-05-18T15:24:34.555Z,9.80
2019-05-18T15:27:08.796Z,9.30
2019-05-18T15:29:41.348Z,9.60
2019-05-18T15:32:14.568Z,11.90
2019-05-18T15:34:46.775Z,11.10
2019-05-18T15:37:19.023Z,9.77
2019-05-18T15:39:50.890Z,9.50
2019-05-18T15:42:23.836Z,10.73
2019-05-18T15:44:55.296Z,10.33
2019-05-18T15:47:26.735Z,10.00
2019-05-18T15:49:59.942Z,10.07
2019-05-18T15:52:33.775Z,11.00
2019-05-18T15:55:05.383Z,10.20
2019-05-18T15:57:38.527Z,11.57
2019-05-18T16:00:13.035Z,11.63
2019-05-18T16:02:47.212Z,12.20
2019-05-18T16:05:20.553Z,11.87
2019-05-18T16:07:54.347Z,10.70
2019-05-18T16:10:26.957Z,11.40
2019-05-18T16:13:00.009Z,10.33
2019-05-18T16:15:32.988Z,11.50
2019-05-18T16:18:04.916Z,12.23
2019-05-18T16:20:38.048Z,11.00
2019-05-18T16:23:13.532Z,11.80
2019-05-18T16:25:45.167Z,11.23
2019-05-18T16:28:17.999Z,13.10
2019-05-18T16:30:51.014Z,12.30
2019-05-18T16:33:24.110Z,11.80
2019-05-18T16:35:56.023Z,13.10
2019-05-18T16:38:28.390Z,13.37
2019-05-18T16:41:02.216Z,14.00
2019-05-18T16:43:35.026Z,15.47
2019-05-18T16:46:08.057Z,20.77
2019-05-18T16:48:42.739Z,20.43
2019-05-18T16:51:14.218Z,16.20
2019-05-18T16:53:50.204Z,14.57
2019-05-18T16:56:34.940Z,12.83
2019-05-18T16:58:59.049Z,12.57
2019-05-18T17:01:31.982Z,12.50
2019-05-18T17:04:05.342Z,12.50
2019-05-18T17:06:38.135Z,11.80
2019-05-18T17:09:12.863Z,13.60
2019-05-18T17:11:48.078Z,13.33
2019-05-18T17:14:21.037Z,12.33
2019-05-18T17:16:53.440Z,11.60
2019-05-18T17:19:25.179Z,13.77
2019-05-18T17:21:58.055Z,12.40
2019-05-18T17:24:29.367Z,13.90
2019-05-18T17:27:02.260Z,12.87
2019-05-18T17:29:35.144Z,13.20
2019-05-18T17:32:08.317Z,12.97
2019-05-18T17:34:41.394Z,13.30
2019-05-18T17:37:14.531Z,12.57
2019-05-18T17:39:52.428Z,12.57
2019-05-18T17:42:29.067Z,14.27
2019-05-18T17:45:02.514Z,14.70
2019-05-18T17:47:35.434Z,16.33
2019-05-18T17:50:13.408Z,17.10
2019-05-18T17:52:49.902Z,17.33
2019-05-18T17:55:23.746Z,15.93
2019-05-18T17:57:56.322Z,16.20
2019-05-18T18:00:30.105Z,14.07
2019-05-18T18:03:03.235Z,14.83
2019-05-18T18:05:36.520Z,15.30
2019-05-18T18:08:08.373Z,15.13
2019-05-18T18:10:42.391Z,17.43
2019-05-18T18:13:14.335Z,22.63
2019-05-18T18:15:47.548Z,17.13
2019-05-18T18:18:20.305Z,22.63
2019-05-18T18:20:54.023Z,18.77
2019-05-18T18:23:26.502Z,18.63
2019-05-18T18:25:59.485Z,19.03
2019-05-18T18:28:32.418Z,20.53
2019-05-18T18:31:06.799Z,22.20
2019-05-18T18:33:40.441Z,21.77
2019-05-18T18:36:16.359Z,19.70
2019-05-18T18:38:50.507Z,20.83
2019-05-18T18:41:24.639Z,22.40
2019-05-18T18:43:58.689Z,21.87
2019-05-18T18:46:32.455Z,20.37
2019-05-18T18:49:05.228Z,19.43
2019-05-18T18:51:38.699Z,18.50
2019-05-18T18:54:12.853Z,17.53
2019-05-18T18:56:44.918Z,18.70
2019-05-18T18:59:16.459Z,22.93
2019-05-18T19:01:50.530Z,23.07
2019-05-18T19:04:23.671Z,20.97
2019-05-18T19:06:55.732Z,23.10
2019-05-18T19:09:30.314Z,23.33
2019-05-18T19:12:02.821Z,27.93
2019-05-18T19:14:35.735Z,29.13
2019-05-18T19:17:10.580Z,28.23
2019-05-18T19:19:42.573Z,27.43
2019-05-18T19:22:15.932Z,21.43
2019-05-18T19:24:49.048Z,23.87
2019-05-18T19:27:22.804Z,20.63
2019-05-18T19:29:55.648Z,18.93
2019-05-18T19:32:29.670Z,20.33
2019-05-18T19:35:01.878Z,21.20
2019-05-18T19:37:35.744Z,21.13
2019-05-18T19:40:10.837Z,21.90
2019-05-18T19:42:46.822Z,22.40
2019-05-18T19:45:20.950Z,20.67
2019-05-18T19:48:08.174Z,21.23
2019-05-18T19:50:46.237Z,23.23
2019-05-18T19:53:17.964Z,24.10
2019-05-18T19:55:49.878Z,24.00
2019-05-18T19:58:23.859Z,30.43
2019-05-18T20:00:57.750Z,25.40
2019-05-18T20:03:31.132Z,25.37
2019-05-18T20:06:03.165Z,25.00
2019-05-18T20:08:34.975Z,26.50
2019-05-18T20:11:10.658Z,27.07
2019-05-18T20:13:41.896Z,25.00
2019-05-18T20:16:15.002Z,21.83
2019-05-18T20:18:49.018Z,24.83
2019-05-18T20:21:23.148Z,24.10
2019-05-18T20:23:57.088Z,19.63
2019-05-18T20:26:28.359Z,18.87
2019-05-18T20:28:59.893Z,20.53
2019-05-18T20:31:33.196Z,25.13
2019-05-18T20:34:05.332Z,24.67
2019-05-18T20:36:39.318Z,26.30
2019-05-18T20:39:12.150Z,23.40
2019-05-18T20:41:45.174Z,23.07
2019-05-18T20:44:18.117Z,21.60
2019-05-18T20:46:52.071Z,23.10
2019-05-18T20:49:26.388Z,21.47
2019-05-18T20:51:59.215Z,23.40
2019-05-18T20:54:34.881Z,19.50
2019-05-18T20:57:06.235Z,20.23
2019-05-18T20:59:38.182Z,22.10
2019-05-18T21:02:13.044Z,21.20
2019-05-18T21:04:45.873Z,21.80
2019-05-18T21:07:19.906Z,21.53
2019-05-18T21:09:54.266Z,21.83
2019-05-18T21:12:28.568Z,24.50
2019-05-18T21:15:01.183Z,23.23
2019-05-18T21:17:33.303Z,20.60
2019-05-18T21:20:05.602Z,22.23
2019-05-18T21:22:37.172Z,21.27
2019-05-18T21:25:09.371Z,19.70
2019-05-18T21:27:42.445Z,21.03
2019-05-18T21:30:21.348Z,22.53
2019-05-18T21:32:53.859Z,22.60
2019-05-18T21:35:26.458Z,24.63
2019-05-18T21:38:07.826Z,19.37
2019-05-18T21:40:46.779Z,21.40
2019-05-18T21:43:20.419Z,21.00
2019-05-18T21:45:54.574Z,23.73
2019-05-18T21:48:26.366Z,21.73
2019-05-18T21:50:59.357Z,22.33
2019-05-18T21:53:31.549Z,20.37
2019-05-18T21:56:05.095Z,22.87
2019-05-18T21:58:40.224Z,23.60
2019-05-18T22:01:14.397Z,23.07
2019-05-18T22:03:49.960Z,21.07
2019-05-18T22:06:26.055Z,20.17
2019-05-18T22:08:57.474Z,20.03
2019-05-18T22:11:29.447Z,22.27
2019-05-18T22:14:01.446Z,22.03
2019-05-18T22:16:36.943Z,21.80
2019-05-18T22:19:08.501Z,22.10
2019-05-18T22:21:41.612Z,21.07
2019-05-18T22:24:15.633Z,21.07
2019-05-18T22:26:49.108Z,21.07
2019-05-18T22:29:22.183Z,22.10
2019-05-18T22:31:54.503Z,22.83
2019-05-18T22:34:26.538Z,22.00
2019-05-18T22:36:59.733Z,22.07
2019-05-18T22:39:31.757Z,22.63
2019-05-18T22:42:05.315Z,21.60
2019-05-18T22:44:39.679Z,21.80
2019-05-18T22:47:11.618Z,19.90
2019-05-18T22:49:43.172Z,21.93
2019-05-18T22:52:14.662Z,20.43
2019-05-18T22:54:46.634Z,21.30
2019-05-18T22:57:20.804Z,21.53
2019-05-18T22:59:52.781Z,20.23
2019-05-18T23:02:26.685Z,22.40
2019-05-18T23:04:58.648Z,19.80
2019-05-18T23:07:31.751Z,22.30
2019-05-18T23:10:05.624Z,23.17
2019-05-18T23:12:40.375Z,23.70
2019-05-18T23:15:13.804Z,22.93
2019-05-18T23:17:49.334Z,23.13
2019-05-18T23:20:20.790Z,22.47
2019-05-18T23:22:52.794Z,23.37
2019-05-18T23:25:26.783Z,22.00
2019-05-18T23:28:01.955Z,19.90
2019-05-18T23:30:35.713Z,20.60
2019-05-18T23:33:09.003Z,20.37
2019-05-18T23:35:43.523Z,20.20
2019-05-18T23:38:14.923Z,18.70
2019-05-18T23:40:46.804Z,18.80
2019-05-18T23:43:20.786Z,20.57
2019-05-18T23:45:53.586Z,22.47
2019-05-18T23:48:25.855Z,20.03
2019-05-18T23:50:59.278Z,18.80
2019-05-18T23:53:32.911Z,20.43
2019-05-18T23:56:07.468Z,19.27
2019-05-18T23:58:42.251Z,21.80
